Time;durP1;ratioP1;P1;durP2;ratioP2;P2;SDS_P1;SDS_P2;PMS_P1;PMS_P2;Temp;Humidity;BMP_temperature;BMP_pressure;BME280_temperature;BME280_humidity;BME280_pressure;Samples;Min_cycle;Max_cycle;Signal;HPM_P1;HPM_P2
2023/12/17 00:00:59;;;;;;;12.23;8.07;;;9.30;99.90;;;;;;4924985;28;20204;-70
2023/12/17 00:03:26;;;;;;;11.90;8.60;;;9.20;99.90;;;;;;4894064;28;20211;-69
2023/12/17 00:05:54;;;;;;;12.02;8.07;;;6.40;99.90;;;;;;4930093;28;20205;-70
2023/12/17 00:08:21;;;;;;;14.45;7.85;;;9.30;99.90;;;;;;4938179;28;20200;-69
2023/12/17 00:10:48;;;;;;;11.73;7.78;;;9.20;99.90;;;;;;4927097;28;20295;-69
2023/12/17 00:13:15;;;;;;;12.32;8.38;;;9.20;99.90;;;;;;4921643;28;20324;-69
2023/12/17 00:15:42;;;;;;;10.50;7.10;;;9.20;99.90;;;;;;4923869;28;20331;-70
2023/12/17 00:18:13;;;;;;;12.50;6.45;;;9.30;99.90;;;;;;4935753;28;20209;-70
2023/12/17 00:20:40;;;;;;;10.45;6.60;;;9.20;99.90;;;;;;4900971;28;20212;-69
2023/12/17 00:23:06;;;;;;;13.57;7.45;;;9.20;99.90;;;;;;4936048;28;20216;-70
2023/12/17 00:25:33;;;;;;;12.80;6.57;;;9.10;99.90;;;;;;4925711;28;20196;-69
2023/12/17 00:28:00;;;;;;;14.07;7.35;;;9.30;99.90;;;;;;4929565;28;20286;-70
2023/12/17 00:30:27;;;;;;;10.73;6.25;;;9.20;99.90;;;;;;4937695;28;20411;-69
2023/12/17 00:32:54;;;;;;;10.07;6.20;;;9.30;99.90;;;;;;4936257;28;20204;-69
2023/12/17 00:35:22;;;;;;;9.10;6.28;;;9.20;99.90;;;;;;4910384;28;20223;-69
2023/12/17 00:37:49;;;;;;;11.48;6.53;;;9.20;99.90;;;;;;4944265;28;20200;-70
2023/12/17 00:40:16;;;;;;;11.90;6.25;;;8.40;99.90;;;;;;4943372;28;20234;-69
2023/12/17 00:42:44;;;;;;;10.98;5.60;;;9.60;99.90;;;;;;4922231;28;20209;-70
2023/12/17 00:45:11;;;;;;;10.00;5.57;;;9.20;99.90;;;;;;4943445;28;20207;-69
2023/12/17 00:47:37;;;;;;;9.55;5.93;;;9.20;99.90;;;;;;4926605;28;20229;-69
2023/12/17 00:50:05;;;;;;;8.75;5.50;;;9.30;99.90;;;;;;4905734;28;20596;-70
2023/12/17 00:52:34;;;;;;;12.48;5.72;;;9.20;99.90;;;;;;4940408;28;20209;-69
2023/12/17 00:55:01;;;;;;;9.18;5.80;;;9.20;99.90;;;;;;4936277;28;20210;-69
2023/12/17 00:57:28;;;;;;;12.05;6.25;;;9.30;99.90;;;;;;4936905;28;20200;-69
2023/12/17 00:59:56;;;;;;;12.02;6.10;;;9.20;99.90;;;;;;4928302;28;21250;-69
2023/12/17 01:02:23;;;;;;;9.68;5.90;;;9.20;99.90;;;;;;4941143;28;20427;-70
2023/12/17 01:04:49;;;;;;;9.45;6.03;;;9.40;99.90;;;;;;4897068;28;20925;-69
2023/12/17 01:07:16;;;;;;;7.60;5.30;;;9.40;99.90;;;;;;4938336;28;20582;-70
2023/12/17 01:09:45;;;;;;;7.82;5.60;;;9.20;99.90;;;;;;4939542;28;20199;-69
2023/12/17 01:12:12;;;;;;;7.93;5.45;;;9.20;99.90;;;;;;4931829;28;21133;-69
2023/12/17 01:14:38;;;;;;;11.95;5.57;;;9.20;99.90;;;;;;4915336;28;20239;-70
2023/12/17 01:17:06;;;;;;;13.40;5.60;;;9.30;99.90;;;;;;4927114;28;20204;-69
2023/12/17 01:19:37;;;;;;;14.80;5.38;;;9.20;99.90;;;;;;4929995;28;20234;-69
2023/12/17 01:22:04;;;;;;;7.10;4.93;;;9.20;99.90;;;;;;4908935;28;20212;-69
2023/12/17 01:24:31;;;;;;;7.25;4.68;;;9.30;99.90;;;;;;4936080;28;20718;-69
2023/12/17 01:27:00;;;;;;;7.25;5.10;;;9.20;99.90;;;;;;4943673;28;20208;-69
2023/12/17 01:29:27;;;;;;;7.28;5.35;;;9.30;99.90;;;;;;4923582;28;20201;-70
2023/12/17 01:31:54;;;;;;;12.35;5.50;;;9.30;99.90;;;;;;4918305;28;20208;-70
2023/12/17 01:34:22;;;;;;;18.52;4.82;;;9.30;99.90;;;;;;4935968;28;20585;-69
2023/12/17 01:36:49;;;;;;;8.05;5.05;;;9.20;99.90;;;;;;4900494;28;20560;-69
2023/12/17 01:39:16;;;;;;;7.68;4.93;;;9.30;99.90;;;;;;4936654;28;20732;-70
2023/12/17 01:41:44;;;;;;;7.25;4.85;;;9.20;99.90;;;;;;4936054;28;20689;-69
2023/12/17 01:44:13;;;;;;;6.45;5.00;;;9.20;99.90;;;;;;4926255;28;20204;-69
2023/12/17 01:46:40;;;;;;;8.02;4.55;;;9.30;99.90;;;;;;4917922;28;20691;-70
2023/12/17 01:49:07;;;;;;;9.95;5.53;;;9.20;99.90;;;;;;4938010;28;20211;-69
2023/12/17 01:51:34;;;;;;;7.47;5.05;;;9.60;99.90;;;;;;4899042;28;20205;-69
2023/12/17 01:54:01;;;;;;;6.43;4.70;;;9.30;99.90;;;;;;4935390;28;20197;-69
2023/12/17 01:56:28;;;;;;;8.07;4.85;;;9.20;99.90;;;;;;4937237;28;20208;-69
2023/12/17 01:58:55;;;;;;;7.78;5.03;;;9.20;99.90;;;;;;4936718;28;20343;-69
2023/12/17 02:01:23;;;;;;;8.10;5.45;;;9.20;99.90;;;;;;4922694;28;20791;-69
2023/12/17 02:03:51;;;;;;;8.45;4.40;;;9.40;99.90;;;;;;4913301;28;20222;-69
2023/12/17 02:06:17;;;;;;;6.65;4.95;;;9.20;99.90;;;;;;4921559;28;21316;-70
2023/12/17 02:08:44;;;;;;;9.60;4.57;;;9.20;99.90;;;;;;4902008;28;20252;-70
2023/12/17 02:11:11;;;;;;;5.40;4.25;;;9.20;99.90;;;;;;4933553;28;20205;-70
2023/12/17 02:13:37;;;;;;;7.30;5.00;;;9.30;99.90;;;;;;4933721;28;20208;-69
2023/12/17 02:16:05;;;;;;;9.65;4.45;;;9.20;99.90;;;;;;4919667;28;20684;-69
2023/12/17 02:18:33;;;;;;;8.05;4.53;;;9.30;99.90;;;;;;4934639;28;21105;-69
2023/12/17 02:21:01;;;;;;;7.03;4.10;;;9.30;99.90;;;;;;4932329;28;20307;-69
2023/12/17 02:23:30;;;;;;;7.35;4.45;;;9.10;99.90;;;;;;4900552;28;20216;-69
2023/12/17 02:25:57;;;;;;;5.60;4.47;;;9.20;99.90;;;;;;4937743;28;21300;-69
2023/12/17 02:28:23;;;;;;;8.80;4.50;;;9.20;99.90;;;;;;4935922;28;20216;-69
2023/12/17 02:30:50;;;;;;;8.02;4.43;;;8.80;99.90;;;;;;4928604;28;20746;-69
2023/12/17 02:33:17;;;;;;;14.18;4.40;;;9.30;99.90;;;;;;4928991;28;20211;-69
2023/12/17 02:35:44;;;;;;;9.30;4.18;;;9.20;99.90;;;;;;4935252;28;20208;-69
2023/12/17 02:38:11;;;;;;;8.57;4.50;;;9.30;99.90;;;;;;4935354;28;20196;-69
2023/12/17 02:40:39;;;;;;;13.15;4.20;;;9.20;99.90;;;;;;4900428;28;20238;-69
2023/12/17 02:43:06;;;;;;;5.50;4.00;;;9.20;99.90;;;;;;4936635;28;20235;-69
2023/12/17 02:45:33;;;;;;;7.00;4.15;;;9.20;99.90;;;;;;4919526;28;20205;-69
2023/12/17 02:48:00;;;;;;;6.65;4.45;;;9.20;99.90;;;;;;4927125;28;20200;-69
2023/12/17 02:50:28;;;;;;;7.95;4.70;;;9.20;99.90;;;;;;4940064;28;20691;-69
2023/12/17 02:52:55;;;;;;;6.13;4.28;;;9.20;99.90;;;;;;4934467;28;20208;-69
2023/12/17 02:55:21;;;;;;;4.90;3.85;;;9.20;99.90;;;;;;4902178;28;20298;-69
2023/12/17 02:57:50;;;;;;;6.70;4.22;;;9.20;99.90;;;;;;4936971;28;20208;-69
2023/12/17 03:00:17;;;;;;;6.03;3.83;;;9.20;99.90;;;;;;4930266;28;20229;-69
2023/12/17 03:02:44;;;;;;;7.13;3.70;;;9.20;99.90;;;;;;4917937;28;20215;-69
2023/12/17 03:05:11;;;;;;;6.68;4.00;;;9.20;99.90;;;;;;4934947;28;20204;-69
2023/12/17 03:07:38;;;;;;;3.97;3.53;;;9.30;99.90;;;;;;4940041;28;20204;-69
2023/12/17 03:10:05;;;;;;;5.93;4.22;;;9.20;99.90;;;;;;4902926;28;20212;-70
2023/12/17 03:12:32;;;;;;;9.32;4.07;;;9.20;99.90;;;;;;4936964;28;20232;-69
2023/12/17 03:15:00;;;;;;;7.20;4.20;;;9.20;99.90;;;;;;4931221;28;20397;-69
2023/12/17 03:17:27;;;;;;;6.43;3.67;;;9.20;99.90;;;;;;4918170;28;20205;-70
2023/12/17 03:19:54;;;;;;;5.25;4.25;;;9.30;99.90;;;;;;4937544;28;20588;-69
2023/12/17 03:22:21;;;;;;;4.80;3.45;;;9.30;99.90;;;;;;4938746;28;20298;-69
2023/12/17 03:24:48;;;;;;;7.85;3.95;;;9.20;99.90;;;;;;4917310;28;20290;-70
2023/12/17 03:27:15;;;;;;;8.63;4.40;;;9.20;99.90;;;;;;4908449;28;20288;-69
2023/12/17 03:29:42;;;;;;;5.38;4.03;;;9.20;99.90;;;;;;4940499;28;20264;-69
2023/12/17 03:32:10;;;;;;;8.75;4.22;;;9.20;99.90;;;;;;4917789;28;20207;-69
2023/12/17 03:34:37;;;;;;;8.95;4.20;;;9.30;99.90;;;;;;4939885;28;20320;-69
2023/12/17 03:37:04;;;;;;;6.90;3.78;;;9.30;99.90;;;;;;4939062;28;20563;-69
2023/12/17 03:39:31;;;;;;;4.53;3.85;;;9.20;99.90;;;;;;4938581;28;20232;-69
2023/12/17 03:41:58;;;;;;;6.78;3.67;;;9.20;99.90;;;;;;4907944;28;20351;-69
2023/12/17 03:44:25;;;;;;;10.75;4.30;;;9.20;99.90;;;;;;4942939;28;20200;-69
2023/12/17 03:46:51;;;;;;;8.20;3.78;;;9.30;99.90;;;;;;4932556;28;20229;-70
2023/12/17 03:49:20;;;;;;;5.10;3.83;;;9.30;99.90;;;;;;4926568;28;20252;-69
2023/12/17 03:51:46;;;;;;;9.73;3.78;;;9.30;99.90;;;;;;4939127;28;20200;-69
2023/12/17 03:54:13;;;;;;;8.75;3.67;;;9.30;99.90;;;;;;4938645;28;20192;-69
2023/12/17 03:56:46;;;;;;;5.43;3.53;;;8.90;99.90;;;;;;4906506;28;20212;-69
2023/12/17 03:59:13;;;;;;;7.57;4.07;;;9.20;99.90;;;;;;4941155;28;20312;-69
2023/12/17 04:01:45;;;;;;;6.70;3.80;;;9.30;99.90;;;;;;4944166;28;20676;-69
2023/12/17 04:04:12;;;;;;;6.70;3.90;;;9.30;99.90;;;;;;4921149;28;20220;-69
2023/12/17 04:06:42;;;;;;;4.97;3.60;;;9.30;99.90;;;;;;4941723;28;20200;-69
2023/12/17 04:09:09;;;;;;;5.95;3.70;;;9.40;99.90;;;;;;4945260;28;20206;-69
2023/12/17 04:11:35;;;;;;;5.47;3.42;;;9.30;99.90;;;;;;4903075;28;20218;-69
2023/12/17 04:14:02;;;;;;;6.72;4.28;;;9.30;99.90;;;;;;4943013;28;20239;-69
2023/12/17 04:16:29;;;;;;;8.20;4.07;;;9.30;99.90;;;;;;4936512;28;20210;-69
2023/12/17 04:18:56;;;;;;;4.95;3.50;;;9.30;99.90;;;;;;4927484;28;20296;-69
2023/12/17 04:21:24;;;;;;;6.30;3.90;;;9.30;99.90;;;;;;4939399;28;20252;-69
2023/12/17 04:23:53;;;;;;;6.82;3.40;;;9.60;99.90;;;;;;4944413;28;20200;-69
2023/12/17 04:26:20;;;;;;;4.22;3.17;;;9.40;99.90;;;;;;4905983;28;20204;-69
2023/12/17 04:28:47;;;;;;;5.40;3.53;;;9.30;99.90;;;;;;4942031;28;20200;-69
2023/12/17 04:31:14;;;;;;;5.05;4.30;;;9.30;99.90;;;;;;4940934;28;20208;-69
2023/12/17 04:33:41;;;;;;;8.35;3.70;;;9.30;99.90;;;;;;4930265;28;20691;-69
2023/12/17 04:36:08;;;;;;;5.32;3.72;;;9.30;99.90;;;;;;4932729;28;20223;-69
2023/12/17 04:38:35;;;;;;;6.35;3.83;;;9.30;99.90;;;;;;4945447;28;20231;-69
2023/12/17 04:41:03;;;;;;;6.88;3.75;;;9.30;99.90;;;;;;4940751;28;20242;-69
2023/12/17 04:43:30;;;;;;;5.78;3.80;;;9.30;99.90;;;;;;4910630;28;20351;-69
2023/12/17 04:45:57;;;;;;;6.95;3.55;;;9.30;99.90;;;;;;4944329;28;20204;-69
2023/12/17 04:48:24;;;;;;;8.32;3.80;;;9.40;99.90;;;;;;4925600;28;20212;-69
2023/12/17 04:50:51;;;;;;;4.50;3.60;;;9.30;99.90;;;;;;4937000;28;20224;-69
2023/12/17 04:53:18;;;;;;;7.10;3.90;;;;;;;;;;4933462;28;20210;-69
2023/12/17 04:55:45;;;;;;;6.80;3.55;;;9.20;99.90;;;;;;4947029;28;20212;-70
2023/12/17 04:58:13;;;;;;;5.55;3.67;;;9.40;99.90;;;;;;4909594;28;20209;-69
2023/12/17 05:00:40;;;;;;;8.93;3.95;;;9.30;99.90;;;;;;4939006;28;20595;-69
2023/12/17 05:03:07;;;;;;;6.82;4.20;;;9.20;99.90;;;;;;4938766;28;20212;-69
2023/12/17 05:05:34;;;;;;;6.72;3.88;;;9.40;99.90;;;;;;4909460;28;20450;-69
2023/12/17 05:08:01;;;;;;;8.45;3.90;;;9.30;99.90;;;;;;4940828;28;20306;-69
2023/12/17 05:10:28;;;;;;;7.38;3.65;;;9.30;99.90;;;;;;4929308;28;20584;-69
2023/12/17 05:12:55;;;;;;;5.53;4.30;;;9.10;99.90;;;;;;4902573;28;21692;-69
2023/12/17 05:15:23;;;;;;;4.43;3.55;;;8.40;99.90;;;;;;4935369;28;20232;-69
2023/12/17 05:17:50;;;;;;;6.75;3.78;;;9.30;99.90;;;;;;4932717;28;20205;-69
2023/12/17 05:20:17;;;;;;;6.82;4.10;;;9.30;99.90;;;;;;4929436;28;20220;-69
2023/12/17 05:22:44;;;;;;;5.68;4.25;;;9.50;99.90;;;;;;4927712;28;20200;-69
2023/12/17 05:25:11;;;;;;;5.68;4.60;;;9.50;99.90;;;;;;4933083;28;20208;-69
2023/12/17 05:27:38;;;;;;;5.85;4.20;;;9.40;99.90;;;;;;4935311;28;20207;-69
2023/12/17 05:30:06;;;;;;;8.80;4.18;;;9.50;99.90;;;;;;4909560;28;20728;-69
2023/12/17 05:32:35;;;;;;;6.18;4.47;;;9.40;99.90;;;;;;4934455;28;20654;-69
2023/12/17 05:35:02;;;;;;;8.65;4.90;;;9.40;99.90;;;;;;4929542;28;20201;-69
2023/12/17 05:37:29;;;;;;;8.27;4.15;;;9.40;99.90;;;;;;4921667;28;20205;-69
2023/12/17 05:39:56;;;;;;;7.63;4.20;;;8.80;99.90;;;;;;4937444;28;20220;-69
2023/12/17 05:42:23;;;;;;;8.65;4.05;;;9.40;99.90;;;;;;4930643;28;21532;-69
2023/12/17 05:44:50;;;;;;;8.30;4.10;;;9.40;99.90;;;;;;4904543;28;20307;-69
2023/12/17 05:47:17;;;;;;;8.02;4.47;;;9.40;99.90;;;;;;4941079;28;20205;-69
2023/12/17 05:49:45;;;;;;;6.43;4.57;;;9.40;99.90;;;;;;4938398;28;20219;-69
2023/12/17 05:52:12;;;;;;;6.47;4.68;;;9.40;99.90;;;;;;4925348;28;20208;-69
2023/12/17 05:54:39;;;;;;;8.13;4.75;;;10.60;99.90;;;;;;4936313;28;20210;-69
2023/12/17 05:57:06;;;;;;;6.75;4.47;;;9.40;99.90;;;;;;4933462;28;20219;-69
2023/12/17 05:59:33;;;;;;;8.63;4.82;;;9.30;99.90;;;;;;4940674;28;20671;-69
2023/12/17 06:02:00;;;;;;;10.75;4.60;;;9.30;99.90;;;;;;4902503;28;20228;-69
2023/12/17 06:04:27;;;;;;;12.10;4.90;;;9.30;99.90;;;;;;4938306;28;20230;-69
2023/12/17 06:06:56;;;;;;;12.27;5.47;;;9.40;99.90;;;;;;4923852;28;20201;-69
2023/12/17 06:09:23;;;;;;;8.75;4.97;;;9.40;99.90;;;;;;4942524;28;20200;-69
2023/12/17 06:11:50;;;;;;;9.45;5.78;;;9.30;99.90;;;;;;4929784;28;20678;-69
2023/12/17 06:14:17;;;;;;;7.80;5.53;;;9.40;99.90;;;;;;4942920;28;20251;-69
2023/12/17 06:16:44;;;;;;;9.07;5.85;;;9.10;99.90;;;;;;4904764;28;20216;-69
2023/12/17 06:19:11;;;;;;;11.70;6.03;;;9.40;99.90;;;;;;4939442;28;20214;-69
2023/12/17 06:21:38;;;;;;;8.98;6.03;;;9.30;99.90;;;;;;4929138;28;20914;-69
2023/12/17 06:24:07;;;;;;;8.98;5.43;;;9.40;99.90;;;;;;4931068;28;20292;-69
2023/12/17 06:26:36;;;;;;;10.27;5.55;;;9.40;99.90;;;;;;4940130;28;20208;-69
2023/12/17 06:29:03;;;;;;;8.60;5.63;;;9.40;99.90;;;;;;4927817;28;20204;-69
2023/12/17 06:31:30;;;;;;;11.07;5.68;;;;;;;;;;4920344;28;20290;-69
2023/12/17 06:33:57;;;;;;;7.70;5.75;;;10.20;99.90;;;;;;4926028;28;20750;-69
2023/12/17 06:36:24;;;;;;;8.18;5.38;;;9.40;99.90;;;;;;4935542;28;20196;-69
2023/12/17 06:38:51;;;;;;;13.70;6.25;;;9.50;99.90;;;;;;4918014;28;20295;-69
2023/12/17 06:41:19;;;;;;;9.77;5.35;;;9.40;99.90;;;;;;4941748;28;20228;-69
2023/12/17 06:43:46;;;;;;;8.70;6.07;;;9.40;99.90;;;;;;4927491;28;20208;-69
2023/12/17 06:46:22;;;;;;;9.75;5.55;;;9.40;99.90;;;;;;5052270;27;20633;-69
2023/12/17 06:48:49;;;;;;;7.82;5.85;;;9.40;99.90;;;;;;4992541;28;20202;-69
2023/12/17 06:51:16;;;;;;;9.20;5.47;;;9.40;99.90;;;;;;5028459;28;20242;-69
2023/12/17 06:53:43;;;;;;;7.90;5.05;;;9.30;99.90;;;;;;5014767;28;20211;-69
2023/12/17 06:56:10;;;;;;;11.85;5.95;;;9.30;99.90;;;;;;5034762;28;20243;-69
2023/12/17 06:58:37;;;;;;;8.85;5.80;;;9.30;99.90;;;;;;5035350;28;20821;-69
2023/12/17 07:01:04;;;;;;;14.50;5.90;;;9.30;99.90;;;;;;5024347;28;20201;-69
2023/12/17 07:03:33;;;;;;;6.65;5.40;;;9.30;99.90;;;;;;4995325;28;20212;-70
2023/12/17 07:06:00;;;;;;;6.53;5.00;;;;;;;;;;5027441;28;20232;-69
2023/12/17 07:08:27;;;;;;;8.63;5.30;;;9.30;99.90;;;;;;5020164;28;20213;-69
2023/12/17 07:10:54;;;;;;;11.50;5.45;;;;;;;;;;5035785;28;20307;-69
2023/12/17 07:13:21;;;;;;;14.63;5.90;;;9.30;99.90;;;;;;5028940;28;20203;-69
2023/12/17 07:15:48;;;;;;;7.55;5.18;;;9.50;99.90;;;;;;5025443;28;20216;-69
2023/12/17 07:18:15;;;;;;;6.95;5.03;;;9.50;99.90;;;;;;4997907;28;20830;-69
2023/12/17 07:20:43;;;;;;;7.95;5.20;;;9.00;99.90;;;;;;5027160;28;20197;-69
2023/12/17 07:23:10;;;;;;;6.22;4.97;;;9.20;99.90;;;;;;5010784;28;20627;-69
2023/12/17 07:25:37;;;;;;;11.80;5.25;;;9.30;99.90;;;;;;5030884;28;20240;-69
2023/12/17 07:28:04;;;;;;;8.27;4.80;;;9.30;99.90;;;;;;5034142;28;20201;-69
2023/12/17 07:30:31;;;;;;;7.85;5.57;;;9.30;99.90;;;;;;5018187;28;20200;-69
2023/12/17 07:32:58;;;;;;;8.57;5.13;;;9.10;99.90;;;;;;5025994;28;20288;-69
2023/12/17 07:35:26;;;;;;;8.25;5.05;;;9.30;99.90;;;;;;4990606;28;20315;-69
2023/12/17 07:37:54;;;;;;;12.35;5.90;;;9.30;99.90;;;;;;5023792;28;20205;-68
2023/12/17 07:40:21;;;;;;;11.13;5.20;;;9.20;99.90;;;;;;5022451;28;20291;-69
2023/12/17 07:42:48;;;;;;;11.07;5.50;;;9.00;99.90;;;;;;5030554;28;20355;-69
2023/12/17 07:45:15;;;;;;;9.00;5.22;;;9.20;99.90;;;;;;5031501;28;20348;-69
2023/12/17 07:47:41;;;;;;;7.13;5.20;;;9.20;99.90;;;;;;5016454;28;20201;-69
2023/12/17 07:50:09;;;;;;;15.63;6.55;;;9.20;99.90;;;;;;4996045;28;20213;-69
2023/12/17 07:52:36;;;;;;;9.57;5.97;;;9.20;99.90;;;;;;5020260;28;20208;-69
2023/12/17 07:55:05;;;;;;;11.68;5.70;;;9.20;99.90;;;;;;5022754;28;20212;-69
2023/12/17 07:57:33;;;;;;;8.30;5.93;;;9.20;99.90;;;;;;5014850;28;20193;-68
2023/12/17 08:00:00;;;;;;;14.82;6.00;;;9.20;99.90;;;;;;5017555;28;20747;-68
2023/12/17 08:02:27;;;;;;;11.38;6.53;;;9.20;99.90;;;;;;4980772;28;20212;-69
2023/12/17 08:04:54;;;;;;;13.68;6.45;;;9.20;99.90;;;;;;4970167;28;27079;-69
2023/12/17 08:07:21;;;;;;;12.25;6.00;;;9.20;99.90;;;;;;5005510;28;20202;-69
2023/12/17 08:09:48;;;;;;;9.77;5.57;;;9.20;99.90;;;;;;4980403;28;20214;-69
2023/12/17 08:12:16;;;;;;;8.57;5.55;;;9.20;99.90;;;;;;5019075;28;20211;-70
2023/12/17 08:14:43;;;;;;;10.52;6.20;;;9.10;99.90;;;;;;5012035;28;20297;-70
2023/12/17 08:17:10;;;;;;;8.27;6.45;;;9.20;99.90;;;;;;5017806;28;20206;-69
2023/12/17 08:19:38;;;;;;;8.95;5.40;;;9.20;99.90;;;;;;4967125;28;22013;-70
2023/12/17 08:22:05;;;;;;;6.85;4.60;;;9.10;99.90;;;;;;5017651;28;20307;-70
2023/12/17 08:24:32;;;;;;;6.93;5.65;;;9.20;99.90;;;;;;4980463;28;20903;-69
2023/12/17 08:26:59;;;;;;;8.70;5.88;;;9.10;99.90;;;;;;5012863;28;20309;-69
2023/12/17 08:29:28;;;;;;;6.93;5.25;;;9.50;99.90;;;;;;5003318;28;20216;-69
2023/12/17 08:31:55;;;;;;;11.82;6.40;;;9.20;99.90;;;;;;5016508;28;21476;-69
2023/12/17 08:34:24;;;;;;;8.48;6.32;;;6.10;99.90;;;;;;5010631;28;20205;-69
2023/12/17 08:36:51;;;;;;;9.27;6.38;;;9.10;99.90;;;;;;4978227;28;20594;-69
2023/12/17 08:39:20;;;;;;;7.45;5.70;;;9.20;99.90;;;;;;5008835;28;20209;-69
2023/12/17 08:41:47;;;;;;;10.02;6.18;;;9.30;99.90;;;;;;4985764;28;20924;-69
2023/12/17 08:44:17;;;;;;;10.90;5.38;;;9.10;99.90;;;;;;5012183;28;21298;-69
2023/12/17 08:46:45;;;;;;;7.32;5.22;;;9.20;99.90;;;;;;4993138;28;20263;-69
2023/12/17 08:49:12;;;;;;;8.70;5.07;;;9.20;99.90;;;;;;5010509;28;20233;-69
2023/12/17 08:51:40;;;;;;;7.65;4.93;;;9.10;99.90;;;;;;4979280;28;21972;-69
2023/12/17 08:54:10;;;;;;;10.63;5.85;;;9.20;99.90;;;;;;5002016;28;20691;-69
2023/12/17 08:56:37;;;;;;;7.68;5.20;;;9.20;99.90;;;;;;4999462;28;20302;-69
2023/12/17 08:59:03;;;;;;;8.60;5.47;;;9.20;99.90;;;;;;5011931;28;20237;-69
2023/12/17 09:01:30;;;;;;;7.95;5.30;;;9.20;99.90;;;;;;5003632;28;20205;-70
2023/12/17 09:03:58;;;;;;;8.95;5.50;;;9.20;99.90;;;;;;4999248;28;20260;-70
2023/12/17 09:06:26;;;;;;;12.10;5.57;;;9.20;99.90;;;;;;4992654;28;20738;-69
2023/12/17 09:08:53;;;;;;;9.27;6.00;;;9.20;99.90;;;;;;4963870;28;21148;-69
2023/12/17 09:11:21;;;;;;;12.95;5.32;;;9.20;99.90;;;;;;4987362;28;20820;-69
2023/12/17 09:13:47;;;;;;;10.85;5.95;;;9.20;99.90;;;;;;4988135;28;20226;-69
2023/12/17 09:16:14;;;;;;;9.07;6.82;;;9.20;99.90;;;;;;5000992;28;20208;-69
2023/12/17 09:18:41;;;;;;;8.48;6.22;;;9.20;99.90;;;;;;4991527;28;20642;-69
2023/12/17 09:21:09;;;;;;;9.70;6.38;;;9.20;99.90;;;;;;5015695;28;20201;-69
2023/12/17 09:23:36;;;;;;;10.25;7.03;;;9.20;99.90;;;;;;4966554;28;20230;-69
2023/12/17 09:26:03;;;;;;;8.20;6.90;;;9.20;99.90;;;;;;4990140;28;20229;-69
2023/12/17 09:28:31;;;;;;;9.75;6.63;;;9.20;99.90;;;;;;5011317;28;20218;-69
2023/12/17 09:30:59;;;;;;;10.23;6.90;;;9.20;99.90;;;;;;4999064;28;20766;-69
2023/12/17 09:33:25;;;;;;;8.98;6.47;;;9.20;99.90;;;;;;5014312;28;20221;-69
2023/12/17 09:35:52;;;;;;;9.23;6.63;;;9.20;99.90;;;;;;5001934;28;20237;-69
2023/12/17 09:38:21;;;;;;;8.57;6.72;;;9.20;99.90;;;;;;5006265;28;20403;-69
2023/12/17 09:40:48;;;;;;;9.07;7.05;;;9.30;99.90;;;;;;4958424;28;20225;-69
2023/12/17 09:43:15;;;;;;;9.75;6.53;;;9.10;99.90;;;;;;4991486;28;20239;-69
2023/12/17 09:45:45;;;;;;;8.20;6.38;;;8.30;99.90;;;;;;5003298;28;20333;-69
2023/12/17 09:48:12;;;;;;;11.05;6.45;;;9.30;99.90;;;;;;5012877;28;20213;-69
2023/12/17 09:50:39;;;;;;;10.38;6.45;;;9.50;99.90;;;;;;4975307;28;20683;-69
2023/12/17 09:53:06;;;;;;;10.27;5.85;;;9.30;99.90;;;;;;5017652;28;20225;-69
2023/12/17 09:55:35;;;;;;;8.70;6.05;;;9.50;99.90;;;;;;4953008;28;20234;-69
2023/12/17 09:58:04;;;;;;;8.20;5.50;;;9.40;99.90;;;;;;4985737;28;20235;-69
2023/12/17 10:00:31;;;;;;;7.60;5.05;;;9.40;99.90;;;;;;4979993;28;20221;-68
2023/12/17 10:03:03;;;;;;;10.00;5.22;;;9.40;99.90;;;;;;4990913;28;20416;-68
2023/12/17 10:05:30;;;;;;;11.70;5.60;;;9.50;99.90;;;;;;5007066;28;20257;-68
2023/12/17 10:07:57;;;;;;;12.15;6.10;;;9.40;99.90;;;;;;5003868;28;20217;-68
2023/12/17 10:10:24;;;;;;;7.13;5.45;;;9.50;99.90;;;;;;4967143;28;21954;-67
2023/12/17 10:12:53;;;;;;;9.23;5.47;;;9.40;99.90;;;;;;4996891;28;21012;-68
2023/12/17 10:15:20;;;;;;;8.93;5.30;;;9.60;99.90;;;;;;5001069;28;20218;-68
2023/12/17 10:17:48;;;;;;;6.40;5.38;;;9.40;99.90;;;;;;5002136;28;20216;-68
2023/12/17 10:20:19;;;;;;;8.13;4.82;;;9.50;99.90;;;;;;5010697;28;21100;-68
2023/12/17 10:22:59;;;;;;;7.93;4.03;;;9.40;99.90;;;;;;4981225;28;20221;-69
2023/12/17 10:25:27;;;;;;;7.32;3.53;;;7.80;99.90;;;;;;4974239;28;20726;-69
2023/12/17 10:27:57;;;;;;;5.55;3.90;;;9.50;99.90;;;;;;4999478;28;20225;-69
2023/12/17 10:30:28;;;;;;;6.72;4.10;;;9.40;99.90;;;;;;4994006;28;20212;-68
2023/12/17 10:32:55;;;;;;;4.70;3.92;;;9.50;99.90;;;;;;5002166;28;20299;-68
2023/12/17 10:35:23;;;;;;;5.70;4.05;;;9.50;99.90;;;;;;5007003;28;22841;-68
2023/12/17 10:37:52;;;;;;;7.47;3.95;;;9.50;99.90;;;;;;4998738;28;20201;-69
2023/12/17 10:40:20;;;;;;;9.65;4.35;;;8.70;99.90;;;;;;5005841;28;20579;-68
2023/12/17 10:42:49;;;;;;;3.80;3.15;;;8.80;99.90;;;;;;4958416;28;20209;-69
2023/12/17 10:45:20;;;;;;;5.15;3.75;;;9.60;99.90;;;;;;4997537;28;20236;-69
2023/12/17 10:47:49;;;;;;;5.97;3.55;;;9.40;99.90;;;;;;5001222;28;20205;-69
2023/12/17 10:50:16;;;;;;;8.10;4.38;;;9.50;99.90;;;;;;5009696;28;20209;-69
2023/12/17 10:52:44;;;;;;;5.93;3.92;;;9.50;99.90;;;;;;5000134;28;20197;-69
2023/12/17 10:55:11;;;;;;;6.68;4.13;;;9.50;99.90;;;;;;5015379;28;20197;-68
2023/12/17 10:57:40;;;;;;;5.63;4.07;;;9.50;99.90;;;;;;4968876;28;20210;-69
2023/12/17 11:00:09;;;;;;;6.07;4.28;;;9.50;99.90;;;;;;4984028;28;20202;-69
2023/12/17 11:02:39;;;;;;;6.40;4.60;;;9.70;99.90;;;;;;4987301;28;20216;-69
2023/12/17 11:05:06;;;;;;;5.43;4.10;;;9.50;99.90;;;;;;5005828;28;20252;-69
2023/12/17 11:07:34;;;;;;;11.65;5.25;;;9.50;99.90;;;;;;5000254;28;20225;-68
2023/12/17 11:10:01;;;;;;;9.02;5.28;;;9.60;99.90;;;;;;5005337;28;20670;-69
2023/12/17 11:12:28;;;;;;;10.85;5.43;;;10.00;99.90;;;;;;4961940;28;20208;-69
2023/12/17 11:14:55;;;;;;;14.50;6.10;;;9.60;99.90;;;;;;4972901;28;20920;-68
2023/12/17 11:17:22;;;;;;;11.70;6.60;;;9.60;99.90;;;;;;4987238;28;20211;-69
2023/12/17 11:20:01;;;;;;;10.45;6.35;;;9.60;99.90;;;;;;5003626;28;20212;-69
2023/12/17 11:22:29;;;;;;;10.93;6.30;;;9.60;99.90;;;;;;5010300;28;20195;-69
2023/12/17 11:24:57;;;;;;;10.18;6.05;;;9.60;99.90;;;;;;5009371;28;20206;-69
2023/12/17 11:27:25;;;;;;;10.07;6.13;;;9.50;99.90;;;;;;4986829;28;20233;-69
2023/12/17 11:29:53;;;;;;;11.45;6.47;;;9.50;99.90;;;;;;4977048;28;20255;-68
2023/12/17 11:32:21;;;;;;;14.88;8.10;;;9.60;99.90;;;;;;4976461;28;20231;-68
2023/12/17 11:34:52;;;;;;;13.63;8.15;;;9.50;99.90;;;;;;5007933;28;20752;-68
2023/12/17 11:37:22;;;;;;;11.55;7.28;;;8.70;99.90;;;;;;4996717;28;20233;-68
2023/12/17 11:39:59;;;;;;;14.23;8.70;;;9.80;99.90;;;;;;5003521;28;21077;-68
2023/12/17 11:42:25;;;;;;;14.18;7.57;;;9.60;99.90;;;;;;4988237;28;20228;-68
2023/12/17 11:44:53;;;;;;;16.17;8.68;;;9.50;99.90;;;;;;4953824;28;20225;-68
2023/12/17 11:47:26;;;;;;;15.85;8.18;;;9.60;99.90;;;;;;5000141;28;20243;-68
2023/12/17 11:49:59;;;;;;;14.45;9.10;;;9.60;99.90;;;;;;5009917;28;20233;-68
2023/12/17 11:52:27;;;;;;;38.95;8.82;;;9.70;99.90;;;;;;5001431;28;20228;-68
2023/12/17 11:54:58;;;;;;;13.38;7.95;;;9.40;99.90;;;;;;5004587;28;20224;-68
2023/12/17 11:57:26;;;;;;;12.57;8.43;;;9.70;99.90;;;;;;4999302;28;20247;-68
2023/12/17 11:59:54;;;;;;;15.50;8.27;;;9.70;99.90;;;;;;4951102;28;20261;-69
2023/12/17 12:02:22;;;;;;;14.23;8.27;;;9.70;99.90;;;;;;4991966;28;20207;-69
2023/12/17 12:04:50;;;;;;;18.58;7.90;;;9.70;99.90;;;;;;4977396;28;20690;-68
2023/12/17 12:07:18;;;;;;;15.77;8.80;;;9.70;99.90;;;;;;5002046;28;20299;-69
2023/12/17 12:09:46;;;;;;;13.02;7.70;;;9.70;99.90;;;;;;5016408;28;20296;-68
2023/12/17 12:12:17;;;;;;;15.00;7.88;;;9.60;99.90;;;;;;5012018;28;20714;-68
2023/12/17 12:14:46;;;;;;;14.27;7.88;;;9.70;99.90;;;;;;4952121;28;20903;-69
2023/12/17 12:17:38;;;;;;;13.50;7.68;;;9.70;99.90;;;;;;5012162;28;20218;-68
2023/12/17 12:20:07;;;;;;;13.43;7.25;;;9.80;99.90;;;;;;4990391;28;20212;-69
2023/12/17 12:22:34;;;;;;;13.93;7.85;;;9.70;99.90;;;;;;5002049;28;20759;-68
2023/12/17 12:25:02;;;;;;;13.00;7.30;;;9.60;99.90;;;;;;4980391;28;20229;-69
2023/12/17 12:27:29;;;;;;;14.00;7.25;;;9.70;99.90;;;;;;5010711;28;20230;-69
2023/12/17 12:29:57;;;;;;;11.90;7.55;;;9.70;99.90;;;;;;4964293;28;20322;-69
2023/12/17 12:32:28;;;;;;;12.68;7.15;;;9.70;99.90;;;;;;5006658;28;20209;-69
2023/12/17 12:34:55;;;;;;;11.75;7.18;;;9.70;99.90;;;;;;4989652;28;20222;-69
2023/12/17 12:37:35;;;;;;;12.15;7.07;;;9.70;99.90;;;;;;4997949;28;20202;-69
2023/12/17 12:40:05;;;;;;;9.73;6.05;;;9.60;99.90;;;;;;4981538;28;20729;-70
2023/12/17 12:42:32;;;;;;;11.98;6.32;;;9.60;99.90;;;;;;5001372;28;20200;-70
2023/12/17 12:45:00;;;;;;;10.18;6.70;;;9.60;99.90;;;;;;4960411;28;20231;-70
2023/12/17 12:47:28;;;;;;;18.65;6.45;;;9.60;99.90;;;;;;4992643;28;20235;-69
2023/12/17 12:49:55;;;;;;;9.77;6.47;;;9.30;99.90;;;;;;4993946;28;20206;-70
2023/12/17 12:52:23;;;;;;;9.75;6.30;;;9.70;99.90;;;;;;5002366;28;20366;-70
2023/12/17 12:54:51;;;;;;;9.70;5.80;;;9.60;99.90;;;;;;4994606;28;20217;-70
2023/12/17 12:57:20;;;;;;;10.50;6.50;;;9.60;99.90;;;;;;5015247;28;20201;-70